sensor_id;sensor_type;location;lat;lon;timestamp;pressure;altitude;pressure_sealevel;temperature;humidity
46045;BME280;31781;54.094;13.428;2022-12-10T00:02:07;101153.16;;;0.09;73.52
46045;BME280;31781;54.094;13.428;2022-12-10T00:07:10;101153.69;;;0.03;73.36
46045;BME280;31781;54.094;13.428;2022-12-10T00:12:13;101156.63;;;0.00;73.02
46045;BME280;31781;54.094;13.428;2022-12-10T00:17:22;101160.00;;;0.02;73.13
46045;BME280;31781;54.094;13.428;2022-12-10T00:22:25;101167.06;;;0.03;73.32
46045;BME280;31781;54.094;13.428;2022-12-10T00:27:28;101167.19;;;0.02;72.88
46045;BME280;31781;54.094;13.428;2022-12-10T00:32:41;101163.53;;;0.03;73.05
46045;BME280;31781;54.094;13.428;2022-12-10T00:37:45;101164.12;;;0.06;73.42
46045;BME280;31781;54.094;13.428;2022-12-10T00:42:50;101163.97;;;0.08;73.26
46045;BME280;31781;54.094;13.428;2022-12-10T00:47:59;101164.72;;;0.10;73.00
46045;BME280;31781;54.094;13.428;2022-12-10T00:53:19;101160.25;;;0.20;73.45
46045;BME280;31781;54.094;13.428;2022-12-10T00:58:38;101164.62;;;0.21;73.20
46045;BME280;31781;54.094;13.428;2022-12-10T01:09:14;101155.28;;;0.15;72.97
46045;BME280;31781;54.094;13.428;2022-12-10T01:14:20;101156.22;;;0.05;72.72
46045;BME280;31781;54.094;13.428;2022-12-10T01:19:23;101154.78;;;0.00;72.40
46045;BME280;31781;54.094;13.428;2022-12-10T01:24:31;101157.03;;;-0.05;72.28
46045;BME280;31781;54.094;13.428;2022-12-10T01:29:34;101158.25;;;-0.09;72.60
46045;BME280;31781;54.094;13.428;2022-12-10T01:34:38;101160.09;;;-0.09;72.77
46045;BME280;31781;54.094;13.428;2022-12-10T01:39:47;101158.13;;;-0.07;72.68
46045;BME280;31781;54.094;13.428;2022-12-10T01:50:23;101162.09;;;-0.02;72.96
46045;BME280;31781;54.094;13.428;2022-12-10T02:01:05;101153.13;;;-0.01;73.33
46045;BME280;31781;54.094;13.428;2022-12-10T02:06:19;101162.50;;;-0.06;73.34
46045;BME280;31781;54.094;13.428;2022-12-10T02:11:31;101163.06;;;-0.03;73.51
46045;BME280;31781;54.094;13.428;2022-12-10T02:21:55;101162.31;;;0.07;73.27
46045;BME280;31781;54.094;13.428;2022-12-10T02:27:19;101165.09;;;0.05;73.41
46045;BME280;31781;54.094;13.428;2022-12-10T02:32:32;101166.59;;;-0.02;73.37
46045;BME280;31781;54.094;13.428;2022-12-10T02:37:39;101170.41;;;-0.05;73.46
46045;BME280;31781;54.094;13.428;2022-12-10T02:42:44;101176.59;;;-0.04;73.35
46045;BME280;31781;54.094;13.428;2022-12-10T02:47:57;101179.97;;;-0.02;73.36
46045;BME280;31781;54.094;13.428;2022-12-10T02:53:01;101185.06;;;0.01;73.68
46045;BME280;31781;54.094;13.428;2022-12-10T02:58:12;101189.44;;;0.02;73.31
46045;BME280;31781;54.094;13.428;2022-12-10T03:03:34;101184.69;;;0.06;73.58
46045;BME280;31781;54.094;13.428;2022-12-10T03:08:44;101192.44;;;0.09;73.57
46045;BME280;31781;54.094;13.428;2022-12-10T03:13:53;101196.94;;;0.08;73.26
46045;BME280;31781;54.094;13.428;2022-12-10T03:19:07;101194.25;;;0.08;73.30
46045;BME280;31781;54.094;13.428;2022-12-10T03:24:22;101193.16;;;0.11;73.48
46045;BME280;31781;54.094;13.428;2022-12-10T03:29:28;101189.50;;;0.12;73.22
46045;BME280;31781;54.094;13.428;2022-12-10T03:34:43;101187.81;;;0.11;71.02
46045;BME280;31781;54.094;13.428;2022-12-10T03:39:48;101193.66;;;0.05;71.70
46045;BME280;31781;54.094;13.428;2022-12-10T03:44:52;101180.56;;;0.02;70.76
46045;BME280;31781;54.094;13.428;2022-12-10T03:50:01;101181.41;;;0.02;70.53
46045;BME280;31781;54.094;13.428;2022-12-10T03:55:04;101184.09;;;0.02;71.30
46045;BME280;31781;54.094;13.428;2022-12-10T04:00:09;101179.59;;;0.03;71.19
46045;BME280;31781;54.094;13.428;2022-12-10T04:05:18;101183.81;;;0.05;71.46
46045;BME280;31781;54.094;13.428;2022-12-10T04:10:21;101177.62;;;0.05;72.12
46045;BME280;31781;54.094;13.428;2022-12-10T04:15:26;101180.28;;;0.05;71.72
46045;BME280;31781;54.094;13.428;2022-12-10T04:20:35;101179.44;;;0.04;71.47
46045;BME280;31781;54.094;13.428;2022-12-10T04:25:38;101182.97;;;0.05;71.92
46045;BME280;31781;54.094;13.428;2022-12-10T04:30:40;101175.09;;;0.03;71.02
46045;BME280;31781;54.094;13.428;2022-12-10T04:35:49;101175.22;;;0.02;70.95
46045;BME280;31781;54.094;13.428;2022-12-10T04:46:18;101179.44;;;0.04;71.40
46045;BME280;31781;54.094;13.428;2022-12-10T04:51:21;101176.59;;;-0.04;71.15
46045;BME280;31781;54.094;13.428;2022-12-10T05:01:42;101174.16;;;-0.07;71.07
46045;BME280;31781;54.094;13.428;2022-12-10T05:07:02;101177.25;;;-0.12;71.39
46045;BME280;31781;54.094;13.428;2022-12-10T05:12:05;101170.97;;;-0.22;71.20
46045;BME280;31781;54.094;13.428;2022-12-10T05:17:09;101162.34;;;-0.25;70.93
46045;BME280;31781;54.094;13.428;2022-12-10T05:22:19;101163.47;;;-0.28;70.80
46045;BME280;31781;54.094;13.428;2022-12-10T05:32:44;101163.34;;;-0.26;71.51
46045;BME280;31781;54.094;13.428;2022-12-10T05:37:47;101162.28;;;-0.35;71.17
46045;BME280;31781;54.094;13.428;2022-12-10T05:42:50;101173.25;;;-0.38;70.65
46045;BME280;31781;54.094;13.428;2022-12-10T05:48:01;101169.97;;;-0.41;70.50
46045;BME280;31781;54.094;13.428;2022-12-10T05:53:04;101169.25;;;-0.43;71.19
46045;BME280;31781;54.094;13.428;2022-12-10T05:58:07;101170.47;;;-0.47;70.83
46045;BME280;31781;54.094;13.428;2022-12-10T06:08:39;101173.16;;;-0.47;71.48
46045;BME280;31781;54.094;13.428;2022-12-10T06:13:42;101182.81;;;-0.56;71.55
46045;BME280;31781;54.094;13.428;2022-12-10T06:18:51;101187.28;;;-0.57;71.67
46045;BME280;31781;54.094;13.428;2022-12-10T06:24:04;101191.66;;;-0.56;71.77
46045;BME280;31781;54.094;13.428;2022-12-10T06:29:08;101190.56;;;-0.53;72.00
46045;BME280;31781;54.094;13.428;2022-12-10T06:39:34;101198.31;;;-0.50;72.10
46045;BME280;31781;54.094;13.428;2022-12-10T06:44:38;101201.50;;;-0.56;72.13
46045;BME280;31781;54.094;13.428;2022-12-10T06:49:41;101200.66;;;-0.57;71.71
46045;BME280;31781;54.094;13.428;2022-12-10T06:54:51;101207.81;;;-0.57;71.58
46045;BME280;31781;54.094;13.428;2022-12-10T07:05:16;101215.84;;;-0.57;72.02
46045;BME280;31781;54.094;13.428;2022-12-10T07:10:31;101218.44;;;-0.67;72.00
46045;BME280;31781;54.094;13.428;2022-12-10T07:15:53;101221.69;;;-0.63;72.11
46045;BME280;31781;54.094;13.428;2022-12-10T07:20:55;101229.47;;;-0.71;71.96
46045;BME280;31781;54.094;13.428;2022-12-10T07:31:34;101239.06;;;-0.69;72.33
46045;BME280;31781;54.094;13.428;2022-12-10T07:36:37;101233.22;;;-0.74;72.08
46045;BME280;31781;54.094;13.428;2022-12-10T07:41:41;101237.88;;;-0.76;71.91
46045;BME280;31781;54.094;13.428;2022-12-10T07:52:03;101245.84;;;-0.65;72.40
46045;BME280;31781;54.094;13.428;2022-12-10T07:57:05;101242.69;;;-0.70;71.97
46045;BME280;31781;54.094;13.428;2022-12-10T08:02:08;101240.28;;;-0.73;71.66
46045;BME280;31781;54.094;13.428;2022-12-10T08:07:20;101246.38;;;-0.71;71.85
46045;BME280;31781;54.094;13.428;2022-12-10T08:12:23;101259.72;;;-0.71;72.19
46045;BME280;31781;54.094;13.428;2022-12-10T08:22:49;101272.69;;;-0.66;72.14
46045;BME280;31781;54.094;13.428;2022-12-10T08:33:20;101278.03;;;-0.66;72.41
46045;BME280;31781;54.094;13.428;2022-12-10T08:38:32;101280.09;;;-0.70;72.58
46045;BME280;31781;54.094;13.428;2022-12-10T08:48:56;101276.56;;;-0.59;72.38
46045;BME280;31781;54.094;13.428;2022-12-10T08:53:59;101271.72;;;-0.65;72.25
46045;BME280;31781;54.094;13.428;2022-12-10T08:59:02;101285.94;;;-0.65;71.91
46045;BME280;31781;54.094;13.428;2022-12-10T09:04:10;101291.28;;;-0.65;71.69
46045;BME280;31781;54.094;13.428;2022-12-10T09:09:13;101294.81;;;-0.64;72.21
46045;BME280;31781;54.094;13.428;2022-12-10T09:19:39;101300.12;;;-0.53;72.27
46045;BME280;31781;54.094;13.428;2022-12-10T09:24:44;101296.12;;;-0.59;72.08
46045;BME280;31781;54.094;13.428;2022-12-10T09:29:46;101303.19;;;-0.58;71.59
46045;BME280;31781;54.094;13.428;2022-12-10T09:35:00;101311.09;;;-0.56;71.65
46045;BME280;31781;54.094;13.428;2022-12-10T09:40:04;101307.19;;;-0.52;72.12
46045;BME280;31781;54.094;13.428;2022-12-10T09:45:14;101313.84;;;-0.46;71.63
46045;BME280;31781;54.094;13.428;2022-12-10T09:50:30;101302.78;;;-0.42;71.77
46045;BME280;31781;54.094;13.428;2022-12-10T09:55:38;101304.25;;;-0.38;71.78
46045;BME280;31781;54.094;13.428;2022-12-10T10:06:15;101305.06;;;-0.26;71.91
46045;BME280;31781;54.094;13.428;2022-12-10T10:27:17;101315.47;;;-0.12;71.73
46045;BME280;31781;54.094;13.428;2022-12-10T10:32:23;101315.00;;;-0.17;71.74
46045;BME280;31781;54.094;13.428;2022-12-10T10:37:29;101322.03;;;-0.16;71.60
46045;BME280;31781;54.094;13.428;2022-12-10T10:42:41;101321.78;;;-0.13;71.14
46045;BME280;31781;54.094;13.428;2022-12-10T10:58:55;101312.00;;;-0.03;71.67
46045;BME280;31781;54.094;13.428;2022-12-10T11:03:59;101316.28;;;-0.01;71.57
46045;BME280;31781;54.094;13.428;2022-12-10T11:09:04;101317.84;;;0.02;70.88
46045;BME280;31781;54.094;13.428;2022-12-10T11:14:30;101307.84;;;0.04;71.10
46045;BME280;31781;54.094;13.428;2022-12-10T11:19:43;101302.00;;;0.10;71.74
46045;BME280;31781;54.094;13.428;2022-12-10T11:24:46;101308.91;;;0.13;71.49
46045;BME280;31781;54.094;13.428;2022-12-10T11:30:01;101296.88;;;0.18;70.72
46045;BME280;31781;54.094;13.428;2022-12-10T11:35:12;101293.66;;;0.24;71.21
46045;BME280;31781;54.094;13.428;2022-12-10T11:40:37;101294.37;;;0.26;71.46
46045;BME280;31781;54.094;13.428;2022-12-10T11:45:56;101292.16;;;0.31;71.46
46045;BME280;31781;54.094;13.428;2022-12-10T11:51:06;101293.59;;;0.35;71.28
46045;BME280;31781;54.094;13.428;2022-12-10T11:56:20;101288.84;;;0.39;70.90
46045;BME280;31781;54.094;13.428;2022-12-10T12:01:42;101273.09;;;0.45;70.83
46045;BME280;31781;54.094;13.428;2022-12-10T12:07:04;101265.25;;;0.54;70.89
46045;BME280;31781;54.094;13.428;2022-12-10T12:17:33;101267.97;;;0.63;70.43
46045;BME280;31781;54.094;13.428;2022-12-10T12:22:43;101274.91;;;0.66;70.33
46045;BME280;31781;54.094;13.428;2022-12-10T12:27:51;101272.44;;;0.74;70.54
46045;BME280;31781;54.094;13.428;2022-12-10T12:33:02;101281.47;;;0.82;70.50
46045;BME280;31781;54.094;13.428;2022-12-10T12:38:19;101284.22;;;0.92;70.96
46045;BME280;31781;54.094;13.428;2022-12-10T12:48:57;101282.28;;;1.04;70.79
46045;BME280;31781;54.094;13.428;2022-12-10T12:54:02;101279.03;;;1.00;70.50
46045;BME280;31781;54.094;13.428;2022-12-10T12:59:11;101276.91;;;1.04;69.42
46045;BME280;31781;54.094;13.428;2022-12-10T13:09:43;101262.91;;;1.21;70.24
46045;BME280;31781;54.094;13.428;2022-12-10T13:15:18;101272.66;;;1.31;70.30
46045;BME280;31781;54.094;13.428;2022-12-10T13:20:40;101271.56;;;1.43;70.36
46045;BME280;31781;54.094;13.428;2022-12-10T13:25:57;101275.91;;;1.35;69.66
46045;BME280;31781;54.094;13.428;2022-12-10T13:31:18;101280.16;;;1.37;69.59
46045;BME280;31781;54.094;13.428;2022-12-10T13:37:05;101292.84;;;1.35;69.71
46045;BME280;31781;54.094;13.428;2022-12-10T13:42:29;101300.03;;;1.35;69.96
46045;BME280;31781;54.094;13.428;2022-12-10T13:58:39;101311.81;;;1.13;69.51
46045;BME280;31781;54.094;13.428;2022-12-10T14:04:01;101311.00;;;0.92;69.48
46045;BME280;31781;54.094;13.428;2022-12-10T14:14:33;101303.53;;;0.65;69.57
46045;BME280;31781;54.094;13.428;2022-12-10T14:19:38;101300.59;;;0.47;69.43
46045;BME280;31781;54.094;13.428;2022-12-10T14:24:41;101306.12;;;0.35;68.92
46045;BME280;31781;54.094;13.428;2022-12-10T14:30:14;101303.72;;;0.32;69.75
46045;BME280;31781;54.094;13.428;2022-12-10T14:35:33;101318.88;;;0.22;70.04
46045;BME280;31781;54.094;13.428;2022-12-10T14:40:38;101312.38;;;0.04;69.67
46045;BME280;31781;54.094;13.428;2022-12-10T14:45:44;101315.09;;;-0.08;69.22
46045;BME280;31781;54.094;13.428;2022-12-10T15:01:36;101314.78;;;-0.36;70.01
46045;BME280;31781;54.094;13.428;2022-12-10T15:12:01;101308.28;;;-0.55;70.15
46045;BME280;31781;54.094;13.428;2022-12-10T15:28:28;101311.81;;;-0.87;70.27
46045;BME280;31781;54.094;13.428;2022-12-10T15:33:37;101318.63;;;-1.06;70.24
46045;BME280;31781;54.094;13.428;2022-12-10T15:38:42;101319.47;;;-1.16;70.21
46045;BME280;31781;54.094;13.428;2022-12-10T15:43:58;101318.59;;;-1.28;69.97
46045;BME280;31781;54.094;13.428;2022-12-10T15:49:05;101322.97;;;-1.38;70.42
46045;BME280;31781;54.094;13.428;2022-12-10T15:59:29;101329.97;;;-1.48;70.76
46045;BME280;31781;54.094;13.428;2022-12-10T16:09:54;101333.59;;;-1.60;71.20
46045;BME280;31781;54.094;13.428;2022-12-10T16:14:57;101327.34;;;-1.72;71.11
46045;BME280;31781;54.094;13.428;2022-12-10T16:20:16;101322.59;;;-1.79;70.98
46045;BME280;31781;54.094;13.428;2022-12-10T16:25:28;101324.75;;;-1.84;71.38
46045;BME280;31781;54.094;13.428;2022-12-10T16:35:54;101338.47;;;-1.89;71.36
46045;BME280;31781;54.094;13.428;2022-12-10T16:41:00;101327.84;;;-2.02;71.17
46045;BME280;31781;54.094;13.428;2022-12-10T16:46:04;101331.94;;;-2.09;70.86
46045;BME280;31781;54.094;13.428;2022-12-10T16:51:19;101332.41;;;-2.15;70.90
46045;BME280;31781;54.094;13.428;2022-12-10T16:56:23;101330.16;;;-2.21;71.23
46045;BME280;31781;54.094;13.428;2022-12-10T17:01:28;101328.81;;;-2.26;71.21
46045;BME280;31781;54.094;13.428;2022-12-10T17:06:37;101343.31;;;-2.30;71.24
46045;BME280;31781;54.094;13.428;2022-12-10T17:22:21;101355.69;;;-2.29;71.80
46045;BME280;31781;54.094;13.428;2022-12-10T17:27:25;101350.78;;;-2.35;71.99
46045;BME280;31781;54.094;13.428;2022-12-10T17:32:29;101351.56;;;-2.33;72.12
46045;BME280;31781;54.094;13.428;2022-12-10T17:37:39;101364.75;;;-2.32;72.20
46045;BME280;31781;54.094;13.428;2022-12-10T17:42:43;101366.22;;;-2.28;72.46
46045;BME280;31781;54.094;13.428;2022-12-10T17:47:46;101375.72;;;-2.24;72.31
46045;BME280;31781;54.094;13.428;2022-12-10T17:52:55;101378.28;;;-2.22;72.35
46045;BME280;31781;54.094;13.428;2022-12-10T17:58:16;101368.53;;;-2.11;72.50
46045;BME280;31781;54.094;13.428;2022-12-10T18:03:19;101368.87;;;-2.15;72.49
46045;BME280;31781;54.094;13.428;2022-12-10T18:08:23;101372.25;;;-2.13;72.32
46045;BME280;31781;54.094;13.428;2022-12-10T18:13:31;101368.87;;;-2.15;72.35
46045;BME280;31781;54.094;13.428;2022-12-10T18:18:34;101361.72;;;-2.15;72.58
46045;BME280;31781;54.094;13.428;2022-12-10T18:23:37;101371.41;;;-2.14;72.67
46045;BME280;31781;54.094;13.428;2022-12-10T18:28:48;101381.09;;;-2.13;72.69
46045;BME280;31781;54.094;13.428;2022-12-10T18:33:54;101389.63;;;-2.08;72.94
46045;BME280;31781;54.094;13.428;2022-12-10T18:38:58;101379.59;;;-2.04;73.02
46045;BME280;31781;54.094;13.428;2022-12-10T18:44:08;101381.06;;;-2.00;72.97
46045;BME280;31781;54.094;13.428;2022-12-10T18:49:14;101391.59;;;-1.99;72.97
46045;BME280;31781;54.094;13.428;2022-12-10T18:54:17;101391.50;;;-1.97;72.87
46045;BME280;31781;54.094;13.428;2022-12-10T18:59:36;101376.63;;;-1.88;72.98
46045;BME280;31781;54.094;13.428;2022-12-10T19:04:57;101371.28;;;-1.88;72.87
46045;BME280;31781;54.094;13.428;2022-12-10T19:10:00;101383.38;;;-1.96;72.75
46045;BME280;31781;54.094;13.428;2022-12-10T19:15:03;101403.97;;;-1.98;72.34
46045;BME280;31781;54.094;13.428;2022-12-10T19:20:20;101389.28;;;-2.03;72.21
46045;BME280;31781;54.094;13.428;2022-12-10T19:25:39;101396.09;;;-1.99;72.37
46045;BME280;31781;54.094;13.428;2022-12-10T19:30:40;101405.84;;;-2.11;72.15
46045;BME280;31781;54.094;13.428;2022-12-10T19:35:43;101412.47;;;-2.16;71.81
46045;BME280;31781;54.094;13.428;2022-12-10T19:40:52;101420.78;;;-2.21;71.83
46045;BME280;31781;54.094;13.428;2022-12-10T19:45:57;101416.53;;;-2.23;72.08
46045;BME280;31781;54.094;13.428;2022-12-10T19:51:00;101414.09;;;-2.26;72.04
46045;BME280;31781;54.094;13.428;2022-12-10T20:01:24;101404.69;;;-2.19;72.49
46045;BME280;31781;54.094;13.428;2022-12-10T20:06:29;101396.31;;;-2.26;72.57
46045;BME280;31781;54.094;13.428;2022-12-10T20:17:02;101387.53;;;-2.15;72.87
46045;BME280;31781;54.094;13.428;2022-12-10T20:22:29;101389.00;;;-2.11;72.87
46045;BME280;31781;54.094;13.428;2022-12-10T20:27:33;101379.41;;;-2.14;72.89
46045;BME280;31781;54.094;13.428;2022-12-10T20:32:36;101379.28;;;-2.12;72.69
46045;BME280;31781;54.094;13.428;2022-12-10T20:43:14;101385.66;;;-2.02;72.77
46045;BME280;31781;54.094;13.428;2022-12-10T20:48:18;101388.78;;;-2.08;72.69
46045;BME280;31781;54.094;13.428;2022-12-10T20:53:21;101384.41;;;-2.09;72.64
46045;BME280;31781;54.094;13.428;2022-12-10T21:09:00;101369.22;;;-1.96;72.92
46045;BME280;31781;54.094;13.428;2022-12-10T21:14:04;101372.22;;;-2.01;72.98
46045;BME280;31781;54.094;13.428;2022-12-10T21:19:28;101368.59;;;-2.00;72.83
46045;BME280;31781;54.094;13.428;2022-12-10T21:24:36;101369.22;;;-1.96;72.87
46045;BME280;31781;54.094;13.428;2022-12-10T21:35:07;101355.81;;;-1.83;73.00
46045;BME280;31781;54.094;13.428;2022-12-10T21:40:13;101360.50;;;-1.87;72.87
46045;BME280;31781;54.094;13.428;2022-12-10T21:45:17;101367.56;;;-1.86;72.60
46045;BME280;31781;54.094;13.428;2022-12-10T22:01:03;101338.75;;;-1.70;72.70
46045;BME280;31781;54.094;13.428;2022-12-10T22:06:07;101337.50;;;-1.77;72.35
46045;BME280;31781;54.094;13.428;2022-12-10T22:11:09;101352.66;;;-1.77;72.04
46045;BME280;31781;54.094;13.428;2022-12-10T22:16:18;101342.84;;;-1.77;71.84
46045;BME280;31781;54.094;13.428;2022-12-10T22:21:23;101344.66;;;-1.77;72.06
46045;BME280;31781;54.094;13.428;2022-12-10T22:26:29;101333.03;;;-1.76;71.79
46045;BME280;31781;54.094;13.428;2022-12-10T22:31:40;101326.75;;;-1.75;71.63
46045;BME280;31781;54.094;13.428;2022-12-10T22:36:43;101341.78;;;-1.74;71.96
46045;BME280;31781;54.094;13.428;2022-12-10T22:41:46;101335.34;;;-1.72;71.59
46045;BME280;31781;54.094;13.428;2022-12-10T22:46:57;101334.41;;;-1.71;71.41
46045;BME280;31781;54.094;13.428;2022-12-10T22:52:00;101327.34;;;-1.72;71.64
46045;BME280;31781;54.094;13.428;2022-12-10T22:57:04;101327.47;;;-1.73;71.01
46045;BME280;31781;54.094;13.428;2022-12-10T23:02:13;101320.44;;;-1.74;70.91
46045;BME280;31781;54.094;13.428;2022-12-10T23:07:17;101317.03;;;-1.76;71.00
46045;BME280;31781;54.094;13.428;2022-12-10T23:12:20;101312.66;;;-1.77;70.78
46045;BME280;31781;54.094;13.428;2022-12-10T23:17:30;101318.97;;;-1.78;70.66
46045;BME280;31781;54.094;13.428;2022-12-10T23:22:33;101333.03;;;-1.76;71.19
46045;BME280;31781;54.094;13.428;2022-12-10T23:27:52;101311.97;;;-1.68;71.35
46045;BME280;31781;54.094;13.428;2022-12-10T23:38:17;101333.69;;;-1.62;71.37
46045;BME280;31781;54.094;13.428;2022-12-10T23:43:20;101333.22;;;-1.67;70.99
46045;BME280;31781;54.094;13.428;2022-12-10T23:48:23;101328.69;;;-1.66;70.91
46045;BME280;31781;54.094;13.428;2022-12-10T23:53:32;101328.69;;;-1.66;70.88
46045;BME280;31781;54.094;13.428;2022-12-10T23:58:36;101331.03;;;-1.62;71.39
